sensor_id;sensor_type;location;lat;lon;timestamp;pressure;altitude;pressure_sealevel;temperature;humidity
85758;BME280;76202;52.626;4.746;2024-02-23T00:01:20;98313.72;;;18.36;58.05
85758;BME280;76202;52.626;4.746;2024-02-23T00:03:46;98321.84;;;18.36;58.92
85758;BME280;76202;52.626;4.746;2024-02-23T00:06:11;98325.94;;;18.33;58.87
85758;BME280;76202;52.626;4.746;2024-02-23T00:08:37;98330.03;;;18.31;58.45
85758;BME280;76202;52.626;4.746;2024-02-23T00:11:03;98321.09;;;18.30;58.17
85758;BME280;76202;52.626;4.746;2024-02-23T00:13:28;98347.38;;;18.30;58.70
85758;BME280;76202;52.626;4.746;2024-02-23T00:15:54;98349.88;;;18.26;58.54
85758;BME280;76202;52.626;4.746;2024-02-23T00:18:19;98354.47;;;18.26;58.62
85758;BME280;76202;52.626;4.746;2024-02-23T00:20:46;98355.06;;;18.23;58.47
85758;BME280;76202;52.626;4.746;2024-02-23T00:23:11;98361.06;;;18.20;58.51
85758;BME280;76202;52.626;4.746;2024-02-23T00:25:37;98368.09;;;18.21;58.74
85758;BME280;76202;52.626;4.746;2024-02-23T00:28:03;98377.09;;;18.16;58.31
85758;BME280;76202;52.626;4.746;2024-02-23T00:30:28;98386.31;;;18.15;58.13
85758;BME280;76202;52.626;4.746;2024-02-23T00:32:53;98383.91;;;18.14;58.24
85758;BME280;76202;52.626;4.746;2024-02-23T00:35:19;98396.94;;;18.12;58.58
85758;BME280;76202;52.626;4.746;2024-02-23T00:37:44;98387.50;;;18.09;58.33
85758;BME280;76202;52.626;4.746;2024-02-23T00:40:10;98392.38;;;18.07;58.42
85758;BME280;76202;52.626;4.746;2024-02-23T00:42:36;98408.34;;;18.09;58.21
85758;BME280;76202;52.626;4.746;2024-02-23T00:45:01;98405.91;;;18.07;58.70
85758;BME280;76202;52.626;4.746;2024-02-23T00:47:27;98407.31;;;18.05;58.65
85758;BME280;76202;52.626;4.746;2024-02-23T00:49:53;98416.81;;;18.02;58.03
85758;BME280;76202;52.626;4.746;2024-02-23T00:52:18;98419.00;;;18.00;58.68
85758;BME280;76202;52.626;4.746;2024-02-23T00:54:43;98437.13;;;18.00;58.52
85758;BME280;76202;52.626;4.746;2024-02-23T00:57:09;98431.22;;;17.98;58.39
85758;BME280;76202;52.626;4.746;2024-02-23T00:59:34;98433.72;;;17.94;58.64
85758;BME280;76202;52.626;4.746;2024-02-23T01:01:59;98430.47;;;17.92;58.59
85758;BME280;76202;52.626;4.746;2024-02-23T01:04:25;98435.09;;;17.92;58.40
85758;BME280;76202;52.626;4.746;2024-02-23T01:06:51;98447.81;;;17.91;58.21
85758;BME280;76202;52.626;4.746;2024-02-23T01:09:16;98447.00;;;17.91;58.21
85758;BME280;76202;52.626;4.746;2024-02-23T01:11:46;98447.28;;;17.89;58.47
85758;BME280;76202;52.626;4.746;2024-02-23T01:14:11;98452.50;;;17.86;58.37
85758;BME280;76202;52.626;4.746;2024-02-23T01:16:37;98456.59;;;17.83;58.58
85758;BME280;76202;52.626;4.746;2024-02-23T01:19:02;98453.88;;;17.83;58.70
85758;BME280;76202;52.626;4.746;2024-02-23T01:21:28;98470.88;;;17.83;58.60
85758;BME280;76202;52.626;4.746;2024-02-23T01:23:53;98465.28;;;17.80;58.52
85758;BME280;76202;52.626;4.746;2024-02-23T01:26:19;98460.44;;;17.77;58.64
85758;BME280;76202;52.626;4.746;2024-02-23T01:28:44;98468.56;;;17.77;58.07
85758;BME280;76202;52.626;4.746;2024-02-23T01:31:11;98472.34;;;17.76;58.27
85758;BME280;76202;52.626;4.746;2024-02-23T01:33:37;98471.03;;;17.73;58.37
85758;BME280;76202;52.626;4.746;2024-02-23T01:36:07;98475.63;;;17.73;58.41
85758;BME280;76202;52.626;4.746;2024-02-23T01:38:32;98480.81;;;17.69;58.55
85758;BME280;76202;52.626;4.746;2024-02-23T01:40:59;98487.53;;;17.72;58.59
85758;BME280;76202;52.626;4.746;2024-02-23T01:43:24;98486.53;;;17.68;58.84
85758;BME280;76202;52.626;4.746;2024-02-23T01:45:49;98489.22;;;17.68;58.25
85758;BME280;76202;52.626;4.746;2024-02-23T01:48:16;98507.34;;;17.67;58.14
85758;BME280;76202;52.626;4.746;2024-02-23T01:50:42;98498.72;;;17.65;58.16
85758;BME280;76202;52.626;4.746;2024-02-23T01:53:09;98499.81;;;17.64;58.37
85758;BME280;76202;52.626;4.746;2024-02-23T01:55:36;98494.16;;;17.61;58.55
85758;BME280;76202;52.626;4.746;2024-02-23T01:58:03;98506.06;;;17.60;58.18
85758;BME280;76202;52.626;4.746;2024-02-23T02:00:29;98497.44;;;17.58;58.74
85758;BME280;76202;52.626;4.746;2024-02-23T02:02:55;98497.16;;;17.59;58.75
85758;BME280;76202;52.626;4.746;2024-02-23T02:05:20;98504.22;;;17.55;58.53
85758;BME280;76202;52.626;4.746;2024-02-23T02:07:47;98502.34;;;17.56;58.37
85758;BME280;76202;52.626;4.746;2024-02-23T02:10:16;98507.19;;;17.54;58.59
85758;BME280;76202;52.626;4.746;2024-02-23T02:12:42;98501.53;;;17.55;58.35
85758;BME280;76202;52.626;4.746;2024-02-23T02:15:08;98510.19;;;17.52;58.53
85758;BME280;76202;52.626;4.746;2024-02-23T02:17:33;98509.09;;;17.53;58.11
85758;BME280;76202;52.626;4.746;2024-02-23T02:20:02;98507.47;;;17.52;58.10
85758;BME280;76202;52.626;4.746;2024-02-23T02:22:31;98509.94;;;17.49;58.35
85758;BME280;76202;52.626;4.746;2024-02-23T02:24:57;98518.34;;;17.47;58.23
85758;BME280;76202;52.626;4.746;2024-02-23T02:27:22;98525.41;;;17.43;58.08
85758;BME280;76202;52.626;4.746;2024-02-23T02:29:50;98528.13;;;17.43;58.62
85758;BME280;76202;52.626;4.746;2024-02-23T02:32:15;98523.22;;;17.45;58.01
85758;BME280;76202;52.626;4.746;2024-02-23T02:34:41;98529.44;;;17.46;58.51
85758;BME280;76202;52.626;4.746;2024-02-23T02:37:06;98527.31;;;17.43;58.41
85758;BME280;76202;52.626;4.746;2024-02-23T02:39:33;98538.41;;;17.41;58.56
85758;BME280;76202;52.626;4.746;2024-02-23T02:41:58;98534.09;;;17.40;58.71
85758;BME280;76202;52.626;4.746;2024-02-23T02:44:23;98544.41;;;17.38;58.35
85758;BME280;76202;52.626;4.746;2024-02-23T02:46:49;98543.84;;;17.36;59.23
85758;BME280;76202;52.626;4.746;2024-02-23T02:49:14;98537.13;;;17.34;58.65
85758;BME280;76202;52.626;4.746;2024-02-23T02:51:39;98533.63;;;17.33;58.72
85758;BME280;76202;52.626;4.746;2024-02-23T02:54:05;98535.81;;;17.31;58.68
85758;BME280;76202;52.626;4.746;2024-02-23T02:56:30;98532.03;;;17.32;58.83
85758;BME280;76202;52.626;4.746;2024-02-23T02:58:56;98532.59;;;17.29;58.26
85758;BME280;76202;52.626;4.746;2024-02-23T03:01:21;98538.00;;;17.29;58.31
85758;BME280;76202;52.626;4.746;2024-02-23T03:03:47;98536.09;;;17.29;58.07
85758;BME280;76202;52.626;4.746;2024-02-23T03:06:12;98541.50;;;17.29;58.43
85758;BME280;76202;52.626;4.746;2024-02-23T03:08:37;98545.59;;;17.27;58.60
85758;BME280;76202;52.626;4.746;2024-02-23T03:11:03;98552.34;;;17.24;58.23
85758;BME280;76202;52.626;4.746;2024-02-23T03:13:28;98557.75;;;17.24;58.32
85758;BME280;76202;52.626;4.746;2024-02-23T03:15:54;98563.97;;;17.25;58.55
85758;BME280;76202;52.626;4.746;2024-02-23T03:18:19;98559.44;;;17.20;58.40
85758;BME280;76202;52.626;4.746;2024-02-23T03:20:45;98562.38;;;17.24;57.99
85758;BME280;76202;52.626;4.746;2024-02-23T03:23:10;98557.00;;;17.19;58.58
85758;BME280;76202;52.626;4.746;2024-02-23T03:25:36;98558.38;;;17.16;58.87
85758;BME280;76202;52.626;4.746;2024-02-23T03:28:01;98567.81;;;17.19;58.83
85758;BME280;76202;52.626;4.746;2024-02-23T03:30:27;98567.56;;;17.15;58.29
85758;BME280;76202;52.626;4.746;2024-02-23T03:32:52;98562.72;;;17.12;58.02
85758;BME280;76202;52.626;4.746;2024-02-23T03:35:17;98566.78;;;17.15;58.09
85758;BME280;76202;52.626;4.746;2024-02-23T03:37:43;98573.78;;;17.16;58.59
85758;BME280;76202;52.626;4.746;2024-02-23T03:40:09;98572.50;;;17.08;58.42
85758;BME280;76202;52.626;4.746;2024-02-23T03:42:35;98562.50;;;17.09;58.34
85758;BME280;76202;52.626;4.746;2024-02-23T03:45:01;98576.56;;;17.06;58.30
85758;BME280;76202;52.626;4.746;2024-02-23T03:47:26;98567.66;;;17.05;59.00
85758;BME280;76202;52.626;4.746;2024-02-23T03:49:51;98567.94;;;17.04;58.61
85758;BME280;76202;52.626;4.746;2024-02-23T03:52:17;98586.56;;;17.05;58.79
85758;BME280;76202;52.626;4.746;2024-02-23T03:54:42;98572.25;;;17.05;59.00
85758;BME280;76202;52.626;4.746;2024-02-23T03:57:07;98574.44;;;17.03;58.91
85758;BME280;76202;52.626;4.746;2024-02-23T03:59:36;98576.31;;;17.02;58.70
85758;BME280;76202;52.626;4.746;2024-02-23T04:02:01;98587.94;;;17.03;58.10
85758;BME280;76202;52.626;4.746;2024-02-23T04:04:26;98593.34;;;17.03;59.09
85758;BME280;76202;52.626;4.746;2024-02-23T04:06:51;98581.72;;;17.02;58.49
85758;BME280;76202;52.626;4.746;2024-02-23T04:09:17;98592.03;;;17.00;58.66
85758;BME280;76202;52.626;4.746;2024-02-23T04:11:42;98595.00;;;16.99;58.77
85758;BME280;76202;52.626;4.746;2024-02-23T04:14:07;98591.22;;;17.00;58.28
85758;BME280;76202;52.626;4.746;2024-02-23T04:16:33;98599.06;;;16.96;58.39
85758;BME280;76202;52.626;4.746;2024-02-23T04:18:58;98609.06;;;16.96;58.87
85758;BME280;76202;52.626;4.746;2024-02-23T04:21:25;98600.13;;;16.95;58.91
85758;BME280;76202;52.626;4.746;2024-02-23T04:23:50;98604.22;;;16.93;58.35
85758;BME280;76202;52.626;4.746;2024-02-23T04:26:16;98604.22;;;16.93;58.50
85758;BME280;76202;52.626;4.746;2024-02-23T04:28:42;98603.13;;;16.94;58.30
85758;BME280;76202;52.626;4.746;2024-02-23T04:31:08;98600.69;;;16.92;58.67
85758;BME280;76202;52.626;4.746;2024-02-23T04:33:37;98605.06;;;16.88;58.06
85758;BME280;76202;52.626;4.746;2024-02-23T04:36:03;98598.34;;;16.86;58.80
85758;BME280;76202;52.626;4.746;2024-02-23T04:38:30;98608.03;;;16.87;58.75
85758;BME280;76202;52.626;4.746;2024-02-23T04:40:56;98611.84;;;16.86;58.48
85758;BME280;76202;52.626;4.746;2024-02-23T04:43:22;98608.03;;;16.87;58.80
85758;BME280;76202;52.626;4.746;2024-02-23T04:45:48;98610.22;;;16.85;58.67
85758;BME280;76202;52.626;4.746;2024-02-23T04:48:13;98609.41;;;16.84;58.16
85758;BME280;76202;52.626;4.746;2024-02-23T04:50:39;98613.19;;;16.83;58.57
85758;BME280;76202;52.626;4.746;2024-02-23T04:53:04;98616.44;;;16.80;58.90
85758;BME280;76202;52.626;4.746;2024-02-23T04:55:29;98615.66;;;16.80;58.80
85758;BME280;76202;52.626;4.746;2024-02-23T04:57:55;98625.09;;;16.77;59.18
85758;BME280;76202;52.626;4.746;2024-02-23T05:00:21;98620.50;;;16.78;58.69
85758;BME280;76202;52.626;4.746;2024-02-23T05:02:46;98612.41;;;16.78;58.67
85758;BME280;76202;52.626;4.746;2024-02-23T05:05:11;98610.53;;;16.78;58.83
85758;BME280;76202;52.626;4.746;2024-02-23T05:07:37;98614.88;;;16.74;58.67
85758;BME280;76202;52.626;4.746;2024-02-23T05:10:03;98623.25;;;16.72;58.78
85758;BME280;76202;52.626;4.746;2024-02-23T05:12:29;98619.75;;;16.72;59.14
85758;BME280;76202;52.626;4.746;2024-02-23T05:14:54;98613.53;;;16.71;58.66
85758;BME280;76202;52.626;4.746;2024-02-23T05:17:19;98625.69;;;16.69;59.01
85758;BME280;76202;52.626;4.746;2024-02-23T05:19:45;98623.81;;;16.69;58.95
85758;BME280;76202;52.626;4.746;2024-02-23T05:22:12;98632.47;;;16.66;58.88
85758;BME280;76202;52.626;4.746;2024-02-23T05:24:37;98631.41;;;16.67;58.93
85758;BME280;76202;52.626;4.746;2024-02-23T05:27:03;98633.81;;;16.69;58.58
85758;BME280;76202;52.626;4.746;2024-02-23T05:29:28;98624.38;;;16.66;58.66
85758;BME280;76202;52.626;4.746;2024-02-23T05:31:54;98633.03;;;16.63;58.68
85758;BME280;76202;52.626;4.746;2024-02-23T05:34:20;98631.41;;;16.62;59.26
85758;BME280;76202;52.626;4.746;2024-02-23T05:36:46;98626.00;;;16.62;58.56
85758;BME280;76202;52.626;4.746;2024-02-23T05:39:12;98634.66;;;16.64;58.87
85758;BME280;76202;52.626;4.746;2024-02-23T05:41:39;98637.91;;;16.61;58.58
85758;BME280;76202;52.626;4.746;2024-02-23T05:44:04;98629.00;;;16.61;58.58
85758;BME280;76202;52.626;4.746;2024-02-23T05:46:34;98622.78;;;16.60;58.82
85758;BME280;76202;52.626;4.746;2024-02-23T05:49:00;98622.28;;;16.58;58.68
85758;BME280;76202;52.626;4.746;2024-02-23T05:51:28;98625.22;;;16.57;59.29
85758;BME280;76202;52.626;4.746;2024-02-23T05:53:54;98627.66;;;16.58;58.88
85758;BME280;76202;52.626;4.746;2024-02-23T05:56:20;98618.50;;;16.54;59.10
85758;BME280;76202;52.626;4.746;2024-02-23T05:58:45;98618.50;;;16.54;58.67
85758;BME280;76202;52.626;4.746;2024-02-23T06:01:10;98618.78;;;16.53;58.58
85758;BME280;76202;52.626;4.746;2024-02-23T06:03:36;98613.63;;;16.56;58.92
85758;BME280;76202;52.626;4.746;2024-02-23T06:06:01;98611.19;;;16.65;58.23
85758;BME280;76202;52.626;4.746;2024-02-23T06:08:26;98616.22;;;16.71;58.72
85758;BME280;76202;52.626;4.746;2024-02-23T06:10:52;98611.84;;;16.81;58.21
85758;BME280;76202;52.626;4.746;2024-02-23T06:13:17;98609.38;;;16.89;58.49
85758;BME280;76202;52.626;4.746;2024-02-23T06:15:42;98609.31;;;16.99;58.74
85758;BME280;76202;52.626;4.746;2024-02-23T06:18:08;98615.16;;;17.11;57.77
85758;BME280;76202;52.626;4.746;2024-02-23T06:20:34;98614.47;;;17.24;57.65
85758;BME280;76202;52.626;4.746;2024-02-23T06:22:59;98606.25;;;17.40;57.28
85758;BME280;76202;52.626;4.746;2024-02-23T06:25:25;98604.47;;;17.54;57.62
85758;BME280;76202;52.626;4.746;2024-02-23T06:27:50;98609.75;;;17.69;57.33
85758;BME280;76202;52.626;4.746;2024-02-23T06:30:16;98615.00;;;17.84;56.56
85758;BME280;76202;52.626;4.746;2024-02-23T06:32:41;98620.56;;;17.98;56.56
85758;BME280;76202;52.626;4.746;2024-02-23T06:35:08;98629.59;;;18.12;56.25
85758;BME280;76202;52.626;4.746;2024-02-23T06:37:34;98616.69;;;18.27;55.79
85758;BME280;76202;52.626;4.746;2024-02-23T06:39:59;98623.25;;;18.40;55.77
85758;BME280;76202;52.626;4.746;2024-02-23T06:42:24;98617.09;;;18.58;55.34
85758;BME280;76202;52.626;4.746;2024-02-23T06:44:50;98620.16;;;18.70;55.40
85758;BME280;76202;52.626;4.746;2024-02-23T06:47:15;98625.94;;;18.82;55.00
85758;BME280;76202;52.626;4.746;2024-02-23T06:49:42;98625.19;;;18.95;54.59
85758;BME280;76202;52.626;4.746;2024-02-23T06:52:08;98617.97;;;19.10;54.68
85758;BME280;76202;52.626;4.746;2024-02-23T06:54:33;98621.00;;;19.22;54.19
85758;BME280;76202;52.626;4.746;2024-02-23T06:56:59;98626.47;;;19.35;54.36
85758;BME280;76202;52.626;4.746;2024-02-23T06:59:24;98630.63;;;19.46;54.03
85758;BME280;76202;52.626;4.746;2024-02-23T07:01:50;98627.97;;;19.60;53.42
85758;BME280;76202;52.626;4.746;2024-02-23T07:04:16;98621.75;;;19.73;53.46
85758;BME280;76202;52.626;4.746;2024-02-23T07:06:41;98630.19;;;19.72;53.26
85758;BME280;76202;52.626;4.746;2024-02-23T07:09:06;98619.88;;;20.01;52.98
85758;BME280;76202;52.626;4.746;2024-02-23T07:11:33;98619.09;;;20.77;50.91
85758;BME280;76202;52.626;4.746;2024-02-23T07:13:58;98624.31;;;21.09;50.20
85758;BME280;76202;52.626;4.746;2024-02-23T07:16:23;98619.50;;;21.29;49.96
85758;BME280;76202;52.626;4.746;2024-02-23T07:18:49;98620.19;;;21.34;49.66
85758;BME280;76202;52.626;4.746;2024-02-23T07:21:17;98633.19;;;21.37;50.44
85758;BME280;76202;52.626;4.746;2024-02-23T07:23:43;98629.84;;;21.40;49.78
85758;BME280;76202;52.626;4.746;2024-02-23T07:26:08;98633.03;;;21.42;49.57
85758;BME280;76202;52.626;4.746;2024-02-23T07:28:33;98639.38;;;21.38;50.71
85758;BME280;76202;52.626;4.746;2024-02-23T07:30:59;98622.81;;;21.48;50.24
85758;BME280;76202;52.626;4.746;2024-02-23T07:33:24;98627.91;;;21.41;51.01
85758;BME280;76202;52.626;4.746;2024-02-23T07:35:49;98625.06;;;21.46;50.12
85758;BME280;76202;52.626;4.746;2024-02-23T07:38:15;98634.50;;;21.48;50.08
85758;BME280;76202;52.626;4.746;2024-02-23T07:40:43;98634.00;;;21.46;50.27
85758;BME280;76202;52.626;4.746;2024-02-23T07:43:08;98617.19;;;21.44;50.53
85758;BME280;76202;52.626;4.746;2024-02-23T07:45:35;98619.72;;;21.41;50.77
85758;BME280;76202;52.626;4.746;2024-02-23T07:48:01;98615.72;;;21.38;50.94
85758;BME280;76202;52.626;4.746;2024-02-23T07:50:26;98613.63;;;21.35;50.88
85758;BME280;76202;52.626;4.746;2024-02-23T07:52:52;98612.19;;;21.38;51.39
85758;BME280;76202;52.626;4.746;2024-02-23T07:55:17;98613.72;;;21.22;51.71
85758;BME280;76202;52.626;4.746;2024-02-23T07:57:42;98606.34;;;21.22;52.19
85758;BME280;76202;52.626;4.746;2024-02-23T08:00:08;98609.13;;;21.08;52.74
85758;BME280;76202;52.626;4.746;2024-02-23T08:02:35;98613.38;;;21.01;52.94
85758;BME280;76202;52.626;4.746;2024-02-23T08:05:01;98610.44;;;20.97;53.30
85758;BME280;76202;52.626;4.746;2024-02-23T08:07:26;98608.22;;;20.99;53.02
85758;BME280;76202;52.626;4.746;2024-02-23T08:09:53;98612.63;;;20.87;53.64
85758;BME280;76202;52.626;4.746;2024-02-23T08:12:18;98609.13;;;20.73;53.40
85758;BME280;76202;52.626;4.746;2024-02-23T08:14:44;98606.31;;;20.64;53.65
85758;BME280;76202;52.626;4.746;2024-02-23T08:17:11;98604.41;;;20.65;54.44
85758;BME280;76202;52.626;4.746;2024-02-23T08:19:36;98611.59;;;20.61;53.82
85758;BME280;76202;52.626;4.746;2024-02-23T08:22:01;98615.00;;;20.52;54.29
85758;BME280;76202;52.626;4.746;2024-02-23T08:24:27;98604.16;;;20.52;54.96
85758;BME280;76202;52.626;4.746;2024-02-23T08:26:52;98616.31;;;20.55;54.37
85758;BME280;76202;52.626;4.746;2024-02-23T08:29:19;98613.50;;;20.60;54.52
85758;BME280;76202;52.626;4.746;2024-02-23T08:31:44;98619.69;;;20.74;54.64
85758;BME280;76202;52.626;4.746;2024-02-23T08:34:10;98622.63;;;20.64;54.32
85758;BME280;76202;52.626;4.746;2024-02-23T08:36:35;98638.22;;;20.58;54.25
85758;BME280;76202;52.626;4.746;2024-02-23T08:39:00;98622.06;;;20.53;54.14
85758;BME280;76202;52.626;4.746;2024-02-23T08:41:26;98621.47;;;20.43;55.29
85758;BME280;76202;52.626;4.746;2024-02-23T08:43:51;98627.59;;;20.35;55.52
85758;BME280;76202;52.626;4.746;2024-02-23T08:46:16;98616.25;;;20.33;55.46
85758;BME280;76202;52.626;4.746;2024-02-23T08:48:42;98616.38;;;20.28;55.36
85758;BME280;76202;52.626;4.746;2024-02-23T08:51:07;98603.91;;;20.27;55.53
85758;BME280;76202;52.626;4.746;2024-02-23T08:53:32;98613.66;;;20.28;55.66
85758;BME280;76202;52.626;4.746;2024-02-23T08:55:58;98608.81;;;20.25;55.17
85758;BME280;76202;52.626;4.746;2024-02-23T08:58:23;98602.28;;;20.26;55.16
85758;BME280;76202;52.626;4.746;2024-02-23T09:00:48;98596.75;;;20.31;55.47
85758;BME280;76202;52.626;4.746;2024-02-23T09:03:14;98594.34;;;20.29;55.40
85758;BME280;76202;52.626;4.746;2024-02-23T09:05:39;98584.78;;;20.32;55.29
85758;BME280;76202;52.626;4.746;2024-02-23T09:08:06;98590.72;;;20.34;55.57
85758;BME280;76202;52.626;4.746;2024-02-23T09:10:31;98583.75;;;20.41;54.94
85758;BME280;76202;52.626;4.746;2024-02-23T09:12:57;98585.22;;;20.25;55.47
85758;BME280;76202;52.626;4.746;2024-02-23T09:15:22;98586.56;;;20.23;55.95
85758;BME280;76202;52.626;4.746;2024-02-23T09:17:51;98579.47;;;20.27;55.85
85758;BME280;76202;52.626;4.746;2024-02-23T09:20:16;98586.00;;;20.26;56.04
85758;BME280;76202;52.626;4.746;2024-02-23T09:22:42;98580.03;;;20.24;55.79
85758;BME280;76202;52.626;4.746;2024-02-23T09:25:08;98582.75;;;20.24;56.13
85758;BME280;76202;52.626;4.746;2024-02-23T09:27:33;98583.84;;;20.23;56.51
85758;BME280;76202;52.626;4.746;2024-02-23T09:30:01;98583.28;;;20.26;56.20
85758;BME280;76202;52.626;4.746;2024-02-23T09:32:27;98582.88;;;20.19;56.40
85758;BME280;76202;52.626;4.746;2024-02-23T09:34:52;98579.47;;;20.13;56.37
85758;BME280;76202;52.626;4.746;2024-02-23T09:37:17;98578.94;;;20.11;56.60
85758;BME280;76202;52.626;4.746;2024-02-23T09:39:43;98575.34;;;20.16;56.35
85758;BME280;76202;52.626;4.746;2024-02-23T09:42:10;98575.72;;;20.36;55.95
85758;BME280;76202;52.626;4.746;2024-02-23T09:44:36;98583.59;;;20.96;54.96
85758;BME280;76202;52.626;4.746;2024-02-23T09:47:03;98578.13;;;20.74;54.91
85758;BME280;76202;52.626;4.746;2024-02-23T09:49:39;98581.53;;;20.43;55.43
85758;BME280;76202;52.626;4.746;2024-02-23T09:52:08;98573.50;;;20.25;55.58
85758;BME280;76202;52.626;4.746;2024-02-23T09:54:38;98572.00;;;20.05;56.18
85758;BME280;76202;52.626;4.746;2024-02-23T09:57:07;98570.63;;;19.94;56.82
85758;BME280;76202;52.626;4.746;2024-02-23T09:59:37;98575.34;;;19.88;56.80
85758;BME280;76202;52.626;4.746;2024-02-23T10:02:07;98591.63;;;19.88;56.67
85758;BME280;76202;52.626;4.746;2024-02-23T10:04:33;98594.44;;;19.83;56.88
85758;BME280;76202;52.626;4.746;2024-02-23T10:06:59;98569.09;;;19.88;56.90
85758;BME280;76202;52.626;4.746;2024-02-23T10:09:24;98585.59;;;19.91;56.63
85758;BME280;76202;52.626;4.746;2024-02-23T10:11:53;98579.69;;;19.89;56.86
85758;BME280;76202;52.626;4.746;2024-02-23T10:14:20;98589.41;;;19.90;57.20
85758;BME280;76202;52.626;4.746;2024-02-23T10:16:46;98583.97;;;19.90;57.34
85758;BME280;76202;52.626;4.746;2024-02-23T10:19:11;98585.19;;;19.84;57.25
85758;BME280;76202;52.626;4.746;2024-02-23T10:21:36;98596.25;;;19.74;57.44
85758;BME280;76202;52.626;4.746;2024-02-23T10:24:02;98593.91;;;19.68;57.61
85758;BME280;76202;52.626;4.746;2024-02-23T10:26:27;98601.84;;;19.64;58.20
85758;BME280;76202;52.626;4.746;2024-02-23T10:28:53;98599.44;;;19.63;57.84
85758;BME280;76202;52.626;4.746;2024-02-23T10:31:18;98602.16;;;19.63;57.39
85758;BME280;76202;52.626;4.746;2024-02-23T10:33:44;98603.47;;;19.65;57.81
85758;BME280;76202;52.626;4.746;2024-02-23T10:36:11;98621.84;;;19.68;57.40
85758;BME280;76202;52.626;4.746;2024-02-23T10:38:38;98621.75;;;19.73;56.94
85758;BME280;76202;52.626;4.746;2024-02-23T10:41:06;98619.75;;;19.79;56.89
85758;BME280;76202;52.626;4.746;2024-02-23T10:43:45;98621.03;;;19.81;56.77
85758;BME280;76202;52.626;4.746;2024-02-23T10:46:18;98631.81;;;19.86;56.42
85758;BME280;76202;52.626;4.746;2024-02-23T10:48:45;98623.78;;;19.95;55.90
85758;BME280;76202;52.626;4.746;2024-02-23T10:51:12;98636.34;;;19.91;56.58
85758;BME280;76202;52.626;4.746;2024-02-23T10:53:39;98644.47;;;19.91;56.54
85758;BME280;76202;52.626;4.746;2024-02-23T10:56:05;98635.84;;;19.89;56.81
85758;BME280;76202;52.626;4.746;2024-02-23T10:58:32;98656.72;;;19.88;56.94
85758;BME280;76202;52.626;4.746;2024-02-23T11:01:01;98665.91;;;19.92;56.57
85758;BME280;76202;52.626;4.746;2024-02-23T11:03:31;98663.34;;;19.96;56.50
85758;BME280;76202;52.626;4.746;2024-02-23T11:05:59;98658.47;;;19.98;56.52
85758;BME280;76202;52.626;4.746;2024-02-23T11:08:28;98660.84;;;19.99;56.08
85758;BME280;76202;52.626;4.746;2024-02-23T11:10:53;98662.59;;;20.09;56.18
85758;BME280;76202;52.626;4.746;2024-02-23T11:13:29;98666.50;;;20.17;56.11
85758;BME280;76202;52.626;4.746;2024-02-23T11:16:01;98659.25;;;20.12;55.80
85758;BME280;76202;52.626;4.746;2024-02-23T11:18:27;98680.47;;;20.10;56.02
85758;BME280;76202;52.626;4.746;2024-02-23T11:20:55;98675.66;;;20.07;56.77
85758;BME280;76202;52.626;4.746;2024-02-23T11:23:23;98685.06;;;19.96;57.10
85758;BME280;76202;52.626;4.746;2024-02-23T11:28:27;98695.91;;;19.82;57.08
85758;BME280;76202;52.626;4.746;2024-02-23T11:30:53;98700.03;;;19.80;57.64
85758;BME280;76202;52.626;4.746;2024-02-23T11:33:28;98678.44;;;19.75;57.17
85758;BME280;76202;52.626;4.746;2024-02-23T11:36:05;98687.94;;;19.72;57.35
85758;BME280;76202;52.626;4.746;2024-02-23T11:38:32;98692.09;;;19.83;57.04
85758;BME280;76202;52.626;4.746;2024-02-23T11:40:59;98679.63;;;19.96;56.90
85758;BME280;76202;52.626;4.746;2024-02-23T11:43:25;98713.81;;;19.97;57.13
85758;BME280;76202;52.626;4.746;2024-02-23T11:45:50;98712.72;;;19.98;56.58
85758;BME280;76202;52.626;4.746;2024-02-23T11:48:16;98714.19;;;19.90;56.99
85758;BME280;76202;52.626;4.746;2024-02-23T11:50:41;98713.72;;;19.88;56.84
85758;BME280;76202;52.626;4.746;2024-02-23T11:53:08;98723.53;;;19.84;57.72
85758;BME280;76202;52.626;4.746;2024-02-23T11:55:34;98725.97;;;19.86;57.05
85758;BME280;76202;52.626;4.746;2024-02-23T11:58:00;98730.78;;;19.89;56.98
85758;BME280;76202;52.626;4.746;2024-02-23T12:00:26;98719.34;;;19.92;57.01
85758;BME280;76202;52.626;4.746;2024-02-23T12:02:51;98717.94;;;19.94;57.23
85758;BME280;76202;52.626;4.746;2024-02-23T12:05:16;98718.97;;;19.98;57.26
85758;BME280;76202;52.626;4.746;2024-02-23T12:07:42;98736.72;;;19.91;57.45
85758;BME280;76202;52.626;4.746;2024-02-23T12:10:08;98744.03;;;19.90;57.55
85758;BME280;76202;52.626;4.746;2024-02-23T12:12:36;98768.56;;;19.85;57.34
85758;BME280;76202;52.626;4.746;2024-02-23T12:15:02;98749.88;;;19.84;57.43
85758;BME280;76202;52.626;4.746;2024-02-23T12:17:27;98761.50;;;19.84;57.69
85758;BME280;76202;52.626;4.746;2024-02-23T12:20:00;98770.47;;;19.85;57.34
85758;BME280;76202;52.626;4.746;2024-02-23T12:22:25;98759.63;;;19.85;57.34
85758;BME280;76202;52.626;4.746;2024-02-23T12:24:51;98750.97;;;19.83;57.56
85758;BME280;76202;52.626;4.746;2024-02-23T12:27:17;98768.28;;;19.87;57.50
85758;BME280;76202;52.626;4.746;2024-02-23T12:29:56;98768.69;;;19.94;57.11
85758;BME280;76202;52.626;4.746;2024-02-23T12:32:31;98767.28;;;19.96;56.99
85758;BME280;76202;52.626;4.746;2024-02-23T12:34:56;98777.13;;;19.92;57.55
85758;BME280;76202;52.626;4.746;2024-02-23T12:37:21;98762.44;;;19.93;57.20
85758;BME280;76202;52.626;4.746;2024-02-23T12:39:48;98760.91;;;19.87;57.58
85758;BME280;76202;52.626;4.746;2024-02-23T12:42:13;98774.81;;;19.86;57.49
85758;BME280;76202;52.626;4.746;2024-02-23T12:44:39;98775.06;;;19.84;57.62
85758;BME280;76202;52.626;4.746;2024-02-23T12:47:04;98781.31;;;19.85;57.54
85758;BME280;76202;52.626;4.746;2024-02-23T12:49:30;98773.31;;;19.93;57.35
85758;BME280;76202;52.626;4.746;2024-02-23T12:51:56;98783.16;;;19.89;57.35
85758;BME280;76202;52.626;4.746;2024-02-23T12:54:22;98797.22;;;19.91;57.33
85758;BME280;76202;52.626;4.746;2024-02-23T12:56:50;98782.44;;;19.84;57.08